Terminal Aerodrome Forecast
Issued by NWS

Home | Current Version | Previous Version | Text Only | Print | Product List | Glossary On
Versions: 1 2 3 4 5 6 7 8 9 10 11 12 13 14 15 16 17 18 19 20 21 22 23 24 25 26 27 28 29 30 31 32 33
851
FTUS41 KPBZ 151511 AAB
TAFAGC
TAF AMD
KAGC 151511Z 1515/1612 22005KT P6SM OVC120
     FM151800 21010G16KT P6SM BKN080
     FM152300 26008KT P6SM VCSH OVC050
     FM160500 26010KT P6SM BKN050=

USA.gov is the U.S. government's official web portal to all federal, state and local government web resources and services.